sensor_id;sensor_type;location;lat;lon;timestamp;temperature;humidity
152;DHT22;68;48.792;9.164;2023-04-03T00:01:36;3.70;91.50
152;DHT22;68;48.792;9.164;2023-04-03T00:04:03;3.50;91.70
152;DHT22;68;48.792;9.164;2023-04-03T00:06:30;3.50;92.00
152;DHT22;68;48.792;9.164;2023-04-03T00:08:58;3.50;92.00
152;DHT22;68;48.792;9.164;2023-04-03T00:11:25;3.70;92.90
152;DHT22;68;48.792;9.164;2023-04-03T00:13:52;3.70;91.30
152;DHT22;68;48.792;9.164;2023-04-03T00:16:19;3.50;92.00
152;DHT22;68;48.792;9.164;2023-04-03T00:18:45;3.40;92.00
152;DHT22;68;48.792;9.164;2023-04-03T00:21:13;3.40;92.50
152;DHT22;68;48.792;9.164;2023-04-03T00:23:41;3.40;92.90
152;DHT22;68;48.792;9.164;2023-04-03T00:26:09;3.30;92.50
152;DHT22;68;48.792;9.164;2023-04-03T00:28:35;3.30;92.70
152;DHT22;68;48.792;9.164;2023-04-03T00:31:02;3.40;93.20
152;DHT22;68;48.792;9.164;2023-04-03T00:33:29;3.40;92.90
152;DHT22;68;48.792;9.164;2023-04-03T00:35:56;3.40;92.80
152;DHT22;68;48.792;9.164;2023-04-03T00:38:23;3.40;93.10
152;DHT22;68;48.792;9.164;2023-04-03T00:40:50;3.30;92.90
152;DHT22;68;48.792;9.164;2023-04-03T00:43:20;3.30;92.80
152;DHT22;68;48.792;9.164;2023-04-03T00:45:48;3.30;93.00
152;DHT22;68;48.792;9.164;2023-04-03T00:48:18;3.30;93.10
152;DHT22;68;48.792;9.164;2023-04-03T00:50:46;3.30;93.20
152;DHT22;68;48.792;9.164;2023-04-03T00:53:19;3.30;93.20
152;DHT22;68;48.792;9.164;2023-04-03T00:55:49;3.30;93.40
152;DHT22;68;48.792;9.164;2023-04-03T00:58:20;3.30;93.40
152;DHT22;68;48.792;9.164;2023-04-03T01:00:52;3.30;93.40
152;DHT22;68;48.792;9.164;2023-04-03T01:03:22;3.20;93.20
152;DHT22;68;48.792;9.164;2023-04-03T01:05:50;3.20;93.30
152;DHT22;68;48.792;9.164;2023-04-03T01:08:17;3.20;93.50
152;DHT22;68;48.792;9.164;2023-04-03T01:10:43;3.20;93.60
152;DHT22;68;48.792;9.164;2023-04-03T01:13:24;3.20;93.50
152;DHT22;68;48.792;9.164;2023-04-03T01:15:51;3.20;93.70
152;DHT22;68;48.792;9.164;2023-04-03T01:18:18;3.20;93.80
152;DHT22;68;48.792;9.164;2023-04-03T01:24:28;3.10;93.80
152;DHT22;68;48.792;9.164;2023-04-03T01:26:58;3.10;94.10
152;DHT22;68;48.792;9.164;2023-04-03T01:29:26;3.10;94.40
152;DHT22;68;48.792;9.164;2023-04-03T01:31:56;3.10;94.30
152;DHT22;68;48.792;9.164;2023-04-03T01:34:23;3.00;94.30
152;DHT22;68;48.792;9.164;2023-04-03T01:36:50;3.00;94.50
152;DHT22;68;48.792;9.164;2023-04-03T01:39:18;3.00;94.60
152;DHT22;68;48.792;9.164;2023-04-03T01:41:45;3.00;94.50
152;DHT22;68;48.792;9.164;2023-04-03T01:44:12;3.00;94.70
152;DHT22;68;48.792;9.164;2023-04-03T01:46:39;3.00;94.80
152;DHT22;68;48.792;9.164;2023-04-03T01:49:09;3.00;94.80
152;DHT22;68;48.792;9.164;2023-04-03T01:51:36;3.00;94.80
152;DHT22;68;48.792;9.164;2023-04-03T01:54:03;3.00;94.80
152;DHT22;68;48.792;9.164;2023-04-03T01:56:29;2.90;94.90
152;DHT22;68;48.792;9.164;2023-04-03T01:58:56;3.00;95.10
152;DHT22;68;48.792;9.164;2023-04-03T02:01:23;3.00;95.20
152;DHT22;68;48.792;9.164;2023-04-03T02:03:51;3.00;95.20
152;DHT22;68;48.792;9.164;2023-04-03T02:06:19;2.90;94.90
152;DHT22;68;48.792;9.164;2023-04-03T02:08:45;3.00;95.20
152;DHT22;68;48.792;9.164;2023-04-03T02:11:12;2.90;95.30
152;DHT22;68;48.792;9.164;2023-04-03T02:13:39;2.90;94.80
152;DHT22;68;48.792;9.164;2023-04-03T02:16:07;2.90;95.20
152;DHT22;68;48.792;9.164;2023-04-03T02:18:35;2.90;94.90
152;DHT22;68;48.792;9.164;2023-04-03T02:21:02;2.90;94.70
152;DHT22;68;48.792;9.164;2023-04-03T02:23:30;2.90;94.50
152;DHT22;68;48.792;9.164;2023-04-03T02:26:03;2.90;93.40
152;DHT22;68;48.792;9.164;2023-04-03T02:28:31;2.90;92.50
152;DHT22;68;48.792;9.164;2023-04-03T02:30:58;3.00;91.20
152;DHT22;68;48.792;9.164;2023-04-03T02:33:25;3.10;91.40
152;DHT22;68;48.792;9.164;2023-04-03T02:35:53;3.20;90.50
152;DHT22;68;48.792;9.164;2023-04-03T02:38:20;3.20;91.00
152;DHT22;68;48.792;9.164;2023-04-03T02:40:48;3.20;91.20
152;DHT22;68;48.792;9.164;2023-04-03T02:43:15;3.40;92.00
152;DHT22;68;48.792;9.164;2023-04-03T02:45:41;3.70;91.90
152;DHT22;68;48.792;9.164;2023-04-03T02:48:08;3.70;91.90
152;DHT22;68;48.792;9.164;2023-04-03T02:50:35;3.90;89.40
152;DHT22;68;48.792;9.164;2023-04-03T02:53:01;3.80;90.10
152;DHT22;68;48.792;9.164;2023-04-03T02:55:28;3.60;89.30
152;DHT22;68;48.792;9.164;2023-04-03T02:57:56;3.60;89.00
152;DHT22;68;48.792;9.164;2023-04-03T03:00:23;3.90;89.90
152;DHT22;68;48.792;9.164;2023-04-03T03:02:50;3.70;88.30
152;DHT22;68;48.792;9.164;2023-04-03T03:05:17;3.70;88.00
152;DHT22;68;48.792;9.164;2023-04-03T03:07:43;3.90;88.60
152;DHT22;68;48.792;9.164;2023-04-03T03:10:10;3.90;88.60
152;DHT22;68;48.792;9.164;2023-04-03T03:12:37;3.90;88.70
152;DHT22;68;48.792;9.164;2023-04-03T03:15:06;4.10;88.00
152;DHT22;68;48.792;9.164;2023-04-03T03:17:33;4.00;88.40
152;DHT22;68;48.792;9.164;2023-04-03T03:20:01;3.90;88.00
152;DHT22;68;48.792;9.164;2023-04-03T03:22:28;3.90;88.00
152;DHT22;68;48.792;9.164;2023-04-03T03:24:55;4.30;88.10
152;DHT22;68;48.792;9.164;2023-04-03T03:27:22;4.30;88.10
152;DHT22;68;48.792;9.164;2023-04-03T03:29:49;4.40;86.20
152;DHT22;68;48.792;9.164;2023-04-03T03:32:17;4.30;87.20
152;DHT22;68;48.792;9.164;2023-04-03T03:34:44;4.40;87.30
152;DHT22;68;48.792;9.164;2023-04-03T03:37:11;4.50;86.20
152;DHT22;68;48.792;9.164;2023-04-03T03:39:38;4.80;86.20
152;DHT22;68;48.792;9.164;2023-04-03T03:42:04;4.40;84.70
152;DHT22;68;48.792;9.164;2023-04-03T03:44:31;4.00;84.80
152;DHT22;68;48.792;9.164;2023-04-03T03:46:58;3.80;86.50
152;DHT22;68;48.792;9.164;2023-04-03T03:49:26;3.80;87.50
152;DHT22;68;48.792;9.164;2023-04-03T03:51:53;3.70;87.30
152;DHT22;68;48.792;9.164;2023-04-03T03:54:20;3.50;87.90
152;DHT22;68;48.792;9.164;2023-04-03T03:56:46;3.50;87.30
152;DHT22;68;48.792;9.164;2023-04-03T03:59:13;3.70;88.10
152;DHT22;68;48.792;9.164;2023-04-03T04:01:40;3.40;88.00
152;DHT22;68;48.792;9.164;2023-04-03T04:04:07;3.40;88.80
152;DHT22;68;48.792;9.164;2023-04-03T04:06:35;3.40;88.30
152;DHT22;68;48.792;9.164;2023-04-03T04:09:02;3.40;88.80
152;DHT22;68;48.792;9.164;2023-04-03T04:11:28;3.40;88.30
152;DHT22;68;48.792;9.164;2023-04-03T04:13:55;3.40;87.10
152;DHT22;68;48.792;9.164;2023-04-03T04:16:22;3.30;87.20
152;DHT22;68;48.792;9.164;2023-04-03T04:18:49;3.30;86.70
152;DHT22;68;48.792;9.164;2023-04-03T04:21:16;3.30;86.40
152;DHT22;68;48.792;9.164;2023-04-03T04:23:44;3.30;86.70
152;DHT22;68;48.792;9.164;2023-04-03T04:26:10;3.40;86.80
152;DHT22;68;48.792;9.164;2023-04-03T04:28:37;3.40;86.10
152;DHT22;68;48.792;9.164;2023-04-03T04:31:04;3.40;86.20
152;DHT22;68;48.792;9.164;2023-04-03T04:33:31;3.40;86.60
152;DHT22;68;48.792;9.164;2023-04-03T04:35:57;3.50;86.30
152;DHT22;68;48.792;9.164;2023-04-03T04:38:24;3.40;86.10
152;DHT22;68;48.792;9.164;2023-04-03T04:40:52;3.50;86.00
152;DHT22;68;48.792;9.164;2023-04-03T04:43:19;3.40;85.70
152;DHT22;68;48.792;9.164;2023-04-03T04:45:46;3.30;85.00
152;DHT22;68;48.792;9.164;2023-04-03T04:48:12;3.40;85.40
152;DHT22;68;48.792;9.164;2023-04-03T04:50:39;3.40;86.30
152;DHT22;68;48.792;9.164;2023-04-03T04:53:06;3.40;85.00
152;DHT22;68;48.792;9.164;2023-04-03T04:55:33;3.40;84.50
152;DHT22;68;48.792;9.164;2023-04-03T04:58:02;3.40;84.30
152;DHT22;68;48.792;9.164;2023-04-03T05:00:28;3.40;84.30
152;DHT22;68;48.792;9.164;2023-04-03T05:02:55;3.50;83.30
152;DHT22;68;48.792;9.164;2023-04-03T05:05:22;3.40;83.00
152;DHT22;68;48.792;9.164;2023-04-03T05:07:48;3.40;83.10
152;DHT22;68;48.792;9.164;2023-04-03T05:10:15;3.40;82.70
152;DHT22;68;48.792;9.164;2023-04-03T05:12:42;3.40;82.60
152;DHT22;68;48.792;9.164;2023-04-03T05:15:10;3.40;82.80
152;DHT22;68;48.792;9.164;2023-04-03T05:17:37;3.50;83.00
152;DHT22;68;48.792;9.164;2023-04-03T05:20:05;3.50;83.10
152;DHT22;68;48.792;9.164;2023-04-03T05:22:32;3.50;83.00
152;DHT22;68;48.792;9.164;2023-04-03T05:24:59;3.50;83.30
152;DHT22;68;48.792;9.164;2023-04-03T05:27:26;3.50;83.30
152;DHT22;68;48.792;9.164;2023-04-03T05:29:54;3.40;83.40
152;DHT22;68;48.792;9.164;2023-04-03T05:32:23;3.40;83.90
152;DHT22;68;48.792;9.164;2023-04-03T05:34:50;3.30;84.10
152;DHT22;68;48.792;9.164;2023-04-03T05:37:17;3.30;84.80
152;DHT22;68;48.792;9.164;2023-04-03T05:39:45;3.30;84.30
152;DHT22;68;48.792;9.164;2023-04-03T05:42:12;3.30;84.90
152;DHT22;68;48.792;9.164;2023-04-03T05:44:39;3.30;85.00
152;DHT22;68;48.792;9.164;2023-04-03T05:47:06;3.40;85.30
152;DHT22;68;48.792;9.164;2023-04-03T05:49:34;3.70;85.00
152;DHT22;68;48.792;9.164;2023-04-03T05:52:06;3.50;84.50
152;DHT22;68;48.792;9.164;2023-04-03T05:54:32;3.50;84.20
152;DHT22;68;48.792;9.164;2023-04-03T05:56:59;3.40;84.00
152;DHT22;68;48.792;9.164;2023-04-03T05:59:26;3.40;84.30
152;DHT22;68;48.792;9.164;2023-04-03T06:01:53;3.30;84.40
152;DHT22;68;48.792;9.164;2023-04-03T06:04:19;3.30;83.90
152;DHT22;68;48.792;9.164;2023-04-03T06:06:49;3.30;84.10
152;DHT22;68;48.792;9.164;2023-04-03T06:09:19;3.20;84.00
152;DHT22;68;48.792;9.164;2023-04-03T06:11:46;3.20;85.00
152;DHT22;68;48.792;9.164;2023-04-03T06:14:13;3.30;84.80
152;DHT22;68;48.792;9.164;2023-04-03T06:16:40;3.40;84.10
152;DHT22;68;48.792;9.164;2023-04-03T06:19:07;3.40;84.40
152;DHT22;68;48.792;9.164;2023-04-03T06:21:34;3.40;84.90
152;DHT22;68;48.792;9.164;2023-04-03T06:24:03;3.50;85.00
152;DHT22;68;48.792;9.164;2023-04-03T06:26:30;3.70;84.70
152;DHT22;68;48.792;9.164;2023-04-03T06:28:57;3.70;84.20
152;DHT22;68;48.792;9.164;2023-04-03T06:31:24;3.50;84.30
152;DHT22;68;48.792;9.164;2023-04-03T06:33:51;3.60;84.90
152;DHT22;68;48.792;9.164;2023-04-03T06:36:18;3.60;84.20
152;DHT22;68;48.792;9.164;2023-04-03T06:38:46;3.60;84.80
152;DHT22;68;48.792;9.164;2023-04-03T06:41:14;3.70;85.20
152;DHT22;68;48.792;9.164;2023-04-03T06:43:41;3.90;84.90
152;DHT22;68;48.792;9.164;2023-04-03T06:46:13;4.10;84.00
152;DHT22;68;48.792;9.164;2023-04-03T06:48:40;4.00;84.00
152;DHT22;68;48.792;9.164;2023-04-03T06:51:08;3.80;84.40
152;DHT22;68;48.792;9.164;2023-04-03T06:53:35;3.70;84.40
152;DHT22;68;48.792;9.164;2023-04-03T06:56:01;3.40;85.50
152;DHT22;68;48.792;9.164;2023-04-03T06:58:30;3.40;86.00
152;DHT22;68;48.792;9.164;2023-04-03T07:00:56;3.50;86.00
152;DHT22;68;48.792;9.164;2023-04-03T07:03:23;3.50;85.60
152;DHT22;68;48.792;9.164;2023-04-03T07:05:50;3.40;86.10
152;DHT22;68;48.792;9.164;2023-04-03T07:08:16;3.50;85.90
152;DHT22;68;48.792;9.164;2023-04-03T07:10:43;3.60;85.60
152;DHT22;68;48.792;9.164;2023-04-03T07:13:10;3.80;86.00
152;DHT22;68;48.792;9.164;2023-04-03T07:15:38;3.90;85.90
152;DHT22;68;48.792;9.164;2023-04-03T07:18:05;3.80;85.00
152;DHT22;68;48.792;9.164;2023-04-03T07:20:32;3.90;85.40
152;DHT22;68;48.792;9.164;2023-04-03T07:22:58;3.70;85.60
152;DHT22;68;48.792;9.164;2023-04-03T07:25:27;3.70;85.40
152;DHT22;68;48.792;9.164;2023-04-03T07:27:54;3.80;85.30
152;DHT22;68;48.792;9.164;2023-04-03T07:30:21;3.90;85.50
152;DHT22;68;48.792;9.164;2023-04-03T07:32:49;4.00;86.00
152;DHT22;68;48.792;9.164;2023-04-03T07:35:16;4.20;85.20
152;DHT22;68;48.792;9.164;2023-04-03T07:37:43;4.50;85.00
152;DHT22;68;48.792;9.164;2023-04-03T07:40:10;4.60;84.50
152;DHT22;68;48.792;9.164;2023-04-03T07:42:37;4.30;83.80
152;DHT22;68;48.792;9.164;2023-04-03T07:45:05;4.10;85.20
152;DHT22;68;48.792;9.164;2023-04-03T07:47:32;4.10;85.60
152;DHT22;68;48.792;9.164;2023-04-03T07:50:00;4.30;85.60
152;DHT22;68;48.792;9.164;2023-04-03T07:52:27;4.40;84.30
152;DHT22;68;48.792;9.164;2023-04-03T07:54:53;4.40;84.40
152;DHT22;68;48.792;9.164;2023-04-03T07:57:20;4.20;85.60
152;DHT22;68;48.792;9.164;2023-04-03T07:59:47;4.40;85.50
152;DHT22;68;48.792;9.164;2023-04-03T08:02:13;4.40;85.30
152;DHT22;68;48.792;9.164;2023-04-03T08:04:40;4.50;85.20
152;DHT22;68;48.792;9.164;2023-04-03T08:07:08;4.60;84.80
152;DHT22;68;48.792;9.164;2023-04-03T08:09:35;4.50;84.20
152;DHT22;68;48.792;9.164;2023-04-03T08:12:02;4.40;84.60
152;DHT22;68;48.792;9.164;2023-04-03T08:14:30;4.50;84.70
152;DHT22;68;48.792;9.164;2023-04-03T08:17:00;4.40;84.50
152;DHT22;68;48.792;9.164;2023-04-03T08:19:28;4.70;84.70
152;DHT22;68;48.792;9.164;2023-04-03T08:21:55;4.70;84.40
152;DHT22;68;48.792;9.164;2023-04-03T08:24:23;4.50;83.50
152;DHT22;68;48.792;9.164;2023-04-03T08:26:50;4.60;84.30
152;DHT22;68;48.792;9.164;2023-04-03T08:29:17;4.70;84.30
152;DHT22;68;48.792;9.164;2023-04-03T08:31:44;5.10;84.20
152;DHT22;68;48.792;9.164;2023-04-03T08:34:11;4.60;83.50
152;DHT22;68;48.792;9.164;2023-04-03T08:36:38;4.70;83.30
152;DHT22;68;48.792;9.164;2023-04-03T08:39:05;4.80;83.70
152;DHT22;68;48.792;9.164;2023-04-03T08:41:35;4.70;82.80
152;DHT22;68;48.792;9.164;2023-04-03T08:44:11;4.80;84.20
152;DHT22;68;48.792;9.164;2023-04-03T08:46:56;4.80;83.40
152;DHT22;68;48.792;9.164;2023-04-03T08:49:31;4.90;83.10
152;DHT22;68;48.792;9.164;2023-04-03T08:52:02;5.10;83.00
152;DHT22;68;48.792;9.164;2023-04-03T08:54:33;5.20;82.80
152;DHT22;68;48.792;9.164;2023-04-03T08:57:04;5.10;83.00
152;DHT22;68;48.792;9.164;2023-04-03T08:59:34;4.90;82.80
152;DHT22;68;48.792;9.164;2023-04-03T09:02:12;4.90;83.40
152;DHT22;68;48.792;9.164;2023-04-03T09:04:43;4.90;83.50
152;DHT22;68;48.792;9.164;2023-04-03T09:07:16;4.90;83.30
152;DHT22;68;48.792;9.164;2023-04-03T09:09:46;4.70;83.90
152;DHT22;68;48.792;9.164;2023-04-03T09:12:19;4.80;84.80
152;DHT22;68;48.792;9.164;2023-04-03T09:14:57;5.10;83.70
152;DHT22;68;48.792;9.164;2023-04-03T09:17:40;5.10;81.30
152;DHT22;68;48.792;9.164;2023-04-03T09:20:17;5.00;82.00
152;DHT22;68;48.792;9.164;2023-04-03T09:22:46;5.40;81.40
152;DHT22;68;48.792;9.164;2023-04-03T09:25:15;5.60;80.90
152;DHT22;68;48.792;9.164;2023-04-03T09:27:44;5.40;80.80
152;DHT22;68;48.792;9.164;2023-04-03T09:30:14;5.40;80.90
152;DHT22;68;48.792;9.164;2023-04-03T09:32:43;5.10;81.80
152;DHT22;68;48.792;9.164;2023-04-03T09:35:19;5.10;82.00
152;DHT22;68;48.792;9.164;2023-04-03T09:37:49;5.20;81.40
152;DHT22;68;48.792;9.164;2023-04-03T09:40:35;5.40;81.20
152;DHT22;68;48.792;9.164;2023-04-03T09:43:21;5.20;80.20
152;DHT22;68;48.792;9.164;2023-04-03T09:45:50;5.00;80.70
152;DHT22;68;48.792;9.164;2023-04-03T09:48:19;5.00;81.90
152;DHT22;68;48.792;9.164;2023-04-03T09:50:55;5.00;81.70
152;DHT22;68;48.792;9.164;2023-04-03T09:53:33;5.10;81.10
152;DHT22;68;48.792;9.164;2023-04-03T09:56:02;5.20;79.70
152;DHT22;68;48.792;9.164;2023-04-03T09:58:32;5.00;80.10
152;DHT22;68;48.792;9.164;2023-04-03T10:01:01;5.00;79.50
152;DHT22;68;48.792;9.164;2023-04-03T10:03:30;5.20;79.30
152;DHT22;68;48.792;9.164;2023-04-03T10:05:58;5.20;79.20
152;DHT22;68;48.792;9.164;2023-04-03T10:08:28;5.30;78.80
152;DHT22;68;48.792;9.164;2023-04-03T10:11:11;5.40;79.10
152;DHT22;68;48.792;9.164;2023-04-03T10:13:53;5.30;78.40
152;DHT22;68;48.792;9.164;2023-04-03T10:16:24;5.30;78.60
152;DHT22;68;48.792;9.164;2023-04-03T10:19:00;5.40;78.80
152;DHT22;68;48.792;9.164;2023-04-03T10:21:37;5.80;78.10
152;DHT22;68;48.792;9.164;2023-04-03T10:24:10;5.70;76.50
152;DHT22;68;48.792;9.164;2023-04-03T10:26:45;5.80;75.40
152;DHT22;68;48.792;9.164;2023-04-03T10:29:22;5.80;75.70
152;DHT22;68;48.792;9.164;2023-04-03T10:31:57;5.80;75.20
152;DHT22;68;48.792;9.164;2023-04-03T10:34:29;6.00;76.20
152;DHT22;68;48.792;9.164;2023-04-03T10:37:04;5.80;75.30
152;DHT22;68;48.792;9.164;2023-04-03T10:39:39;5.80;76.30
152;DHT22;68;48.792;9.164;2023-04-03T10:42:13;5.50;77.70
152;DHT22;68;48.792;9.164;2023-04-03T10:44:52;5.60;77.70
152;DHT22;68;48.792;9.164;2023-04-03T10:47:24;5.50;79.00
152;DHT22;68;48.792;9.164;2023-04-03T10:49:56;5.70;78.50
152;DHT22;68;48.792;9.164;2023-04-03T10:52:30;5.50;77.10
152;DHT22;68;48.792;9.164;2023-04-03T10:55:09;5.50;75.50
152;DHT22;68;48.792;9.164;2023-04-03T10:57:41;5.40;76.30
152;DHT22;68;48.792;9.164;2023-04-03T11:00:17;5.60;75.50
152;DHT22;68;48.792;9.164;2023-04-03T11:02:49;5.70;75.80
152;DHT22;68;48.792;9.164;2023-04-03T11:05:25;5.90;74.70
152;DHT22;68;48.792;9.164;2023-04-03T11:07:53;5.80;74.00
152;DHT22;68;48.792;9.164;2023-04-03T11:10:26;5.70;74.00
152;DHT22;68;48.792;9.164;2023-04-03T11:12:58;5.70;72.90
152;DHT22;68;48.792;9.164;2023-04-03T11:15:30;5.60;73.20
152;DHT22;68;48.792;9.164;2023-04-03T11:18:02;5.70;73.10
152;DHT22;68;48.792;9.164;2023-04-03T11:20:30;5.70;72.70
152;DHT22;68;48.792;9.164;2023-04-03T11:23:01;6.00;73.20
152;DHT22;68;48.792;9.164;2023-04-03T11:25:31;6.20;72.90
152;DHT22;68;48.792;9.164;2023-04-03T11:28:01;6.00;70.80
152;DHT22;68;48.792;9.164;2023-04-03T11:30:37;5.70;71.20
152;DHT22;68;48.792;9.164;2023-04-03T11:33:37;5.60;72.40
152;DHT22;68;48.792;9.164;2023-04-03T11:36:09;5.50;72.90
152;DHT22;68;48.792;9.164;2023-04-03T11:38:38;5.50;72.90
152;DHT22;68;48.792;9.164;2023-04-03T11:41:09;5.50;72.80
152;DHT22;68;48.792;9.164;2023-04-03T11:43:41;5.60;72.60
152;DHT22;68;48.792;9.164;2023-04-03T11:46:10;5.60;72.60
152;DHT22;68;48.792;9.164;2023-04-03T11:48:49;5.80;72.30
152;DHT22;68;48.792;9.164;2023-04-03T11:51:50;6.00;73.00
152;DHT22;68;48.792;9.164;2023-04-03T11:54:44;6.10;72.90
152;DHT22;68;48.792;9.164;2023-04-03T11:57:43;6.10;73.10
152;DHT22;68;48.792;9.164;2023-04-03T12:03:33;6.10;70.60
152;DHT22;68;48.792;9.164;2023-04-03T12:12:25;6.10;71.10
152;DHT22;68;48.792;9.164;2023-04-03T12:14:54;6.10;71.50
152;DHT22;68;48.792;9.164;2023-04-03T12:17:23;5.90;72.30
152;DHT22;68;48.792;9.164;2023-04-03T12:19:52;6.10;71.50
152;DHT22;68;48.792;9.164;2023-04-03T12:22:20;6.00;71.80
152;DHT22;68;48.792;9.164;2023-04-03T12:24:48;5.90;71.20
152;DHT22;68;48.792;9.164;2023-04-03T12:27:33;5.90;71.30
152;DHT22;68;48.792;9.164;2023-04-03T12:30:12;5.90;71.50
152;DHT22;68;48.792;9.164;2023-04-03T12:32:58;6.40;70.80
152;DHT22;68;48.792;9.164;2023-04-03T12:35:37;6.30;69.50
152;DHT22;68;48.792;9.164;2023-04-03T12:41:19;6.30;70.80
152;DHT22;68;48.792;9.164;2023-04-03T12:44:00;6.10;70.40
152;DHT22;68;48.792;9.164;2023-04-03T12:46:35;5.90;70.50
152;DHT22;68;48.792;9.164;2023-04-03T12:49:20;6.10;69.40
152;DHT22;68;48.792;9.164;2023-04-03T12:51:50;6.30;69.30
152;DHT22;68;48.792;9.164;2023-04-03T12:54:21;6.30;69.70
152;DHT22;68;48.792;9.164;2023-04-03T12:56:49;6.70;68.20
152;DHT22;68;48.792;9.164;2023-04-03T12:59:19;6.80;68.40
152;DHT22;68;48.792;9.164;2023-04-03T13:01:53;6.80;68.20
152;DHT22;68;48.792;9.164;2023-04-03T13:04:20;6.90;67.20
152;DHT22;68;48.792;9.164;2023-04-03T13:06:48;6.60;69.20
152;DHT22;68;48.792;9.164;2023-04-03T13:09:21;6.40;68.40
152;DHT22;68;48.792;9.164;2023-04-03T13:11:50;6.40;69.20
152;DHT22;68;48.792;9.164;2023-04-03T13:14:20;6.50;69.30
152;DHT22;68;48.792;9.164;2023-04-03T13:16:54;6.40;68.40
152;DHT22;68;48.792;9.164;2023-04-03T13:19:23;6.60;67.50
152;DHT22;68;48.792;9.164;2023-04-03T13:21:55;6.70;67.00
152;DHT22;68;48.792;9.164;2023-04-03T13:24:25;6.80;67.50
152;DHT22;68;48.792;9.164;2023-04-03T13:26:52;6.90;68.20
152;DHT22;68;48.792;9.164;2023-04-03T13:29:23;6.80;67.50
152;DHT22;68;48.792;9.164;2023-04-03T13:31:53;6.60;66.90
152;DHT22;68;48.792;9.164;2023-04-03T13:34:22;6.40;65.90
152;DHT22;68;48.792;9.164;2023-04-03T13:36:56;6.30;66.50
152;DHT22;68;48.792;9.164;2023-04-03T13:39:26;6.10;66.60
152;DHT22;68;48.792;9.164;2023-04-03T13:41:55;6.20;67.60
152;DHT22;68;48.792;9.164;2023-04-03T13:44:32;6.30;67.60
152;DHT22;68;48.792;9.164;2023-04-03T13:47:01;6.40;66.40
152;DHT22;68;48.792;9.164;2023-04-03T13:49:42;6.60;66.80
152;DHT22;68;48.792;9.164;2023-04-03T13:52:22;7.10;66.00
152;DHT22;68;48.792;9.164;2023-04-03T13:54:55;7.10;65.10
152;DHT22;68;48.792;9.164;2023-04-03T13:57:22;6.60;63.70
152;DHT22;68;48.792;9.164;2023-04-03T13:59:49;6.80;65.10
152;DHT22;68;48.792;9.164;2023-04-03T14:02:20;6.70;64.10
152;DHT22;68;48.792;9.164;2023-04-03T14:04:53;6.70;65.50
152;DHT22;68;48.792;9.164;2023-04-03T14:07:22;6.70;64.80
152;DHT22;68;48.792;9.164;2023-04-03T14:09:49;6.80;66.70
152;DHT22;68;48.792;9.164;2023-04-03T14:12:20;6.80;65.00
152;DHT22;68;48.792;9.164;2023-04-03T14:14:48;6.80;65.70
152;DHT22;68;48.792;9.164;2023-04-03T14:17:17;7.00;66.00
152;DHT22;68;48.792;9.164;2023-04-03T14:19:45;7.10;66.10
152;DHT22;68;48.792;9.164;2023-04-03T14:22:16;7.40;65.80
152;DHT22;68;48.792;9.164;2023-04-03T14:24:44;7.20;64.80
152;DHT22;68;48.792;9.164;2023-04-03T14:27:18;7.00;64.60
152;DHT22;68;48.792;9.164;2023-04-03T14:29:46;7.00;66.30
152;DHT22;68;48.792;9.164;2023-04-03T14:32:14;6.90;64.20
152;DHT22;68;48.792;9.164;2023-04-03T14:34:42;6.80;64.90
152;DHT22;68;48.792;9.164;2023-04-03T14:37:11;6.90;66.00
152;DHT22;68;48.792;9.164;2023-04-03T14:39:39;7.30;65.90
152;DHT22;68;48.792;9.164;2023-04-03T14:42:09;6.80;62.30
152;DHT22;68;48.792;9.164;2023-04-03T14:44:38;6.70;64.00
152;DHT22;68;48.792;9.164;2023-04-03T14:47:05;6.80;64.60
152;DHT22;68;48.792;9.164;2023-04-03T14:49:32;7.00;64.10
152;DHT22;68;48.792;9.164;2023-04-03T14:51:58;7.10;62.80
152;DHT22;68;48.792;9.164;2023-04-03T14:54:25;6.90;63.70
152;DHT22;68;48.792;9.164;2023-04-03T14:56:54;6.90;63.90
152;DHT22;68;48.792;9.164;2023-04-03T14:59:21;6.70;63.10
152;DHT22;68;48.792;9.164;2023-04-03T15:01:50;6.60;63.70
152;DHT22;68;48.792;9.164;2023-04-03T15:04:19;6.60;63.80
152;DHT22;68;48.792;9.164;2023-04-03T15:06:47;6.90;65.50
152;DHT22;68;48.792;9.164;2023-04-03T15:09:20;6.90;65.40
152;DHT22;68;48.792;9.164;2023-04-03T15:11:48;7.20;63.20
152;DHT22;68;48.792;9.164;2023-04-03T15:14:16;7.20;63.10
152;DHT22;68;48.792;9.164;2023-04-03T15:16:43;6.70;61.50
152;DHT22;68;48.792;9.164;2023-04-03T15:19:12;6.60;63.60
152;DHT22;68;48.792;9.164;2023-04-03T15:21:39;6.70;63.50
152;DHT22;68;48.792;9.164;2023-04-03T15:24:06;6.70;62.70
152;DHT22;68;48.792;9.164;2023-04-03T15:26:33;6.90;63.00
152;DHT22;68;48.792;9.164;2023-04-03T15:29:00;7.00;63.70
152;DHT22;68;48.792;9.164;2023-04-03T15:31:27;7.20;63.30
152;DHT22;68;48.792;9.164;2023-04-03T15:33:54;7.10;63.70
152;DHT22;68;48.792;9.164;2023-04-03T15:36:22;7.10;60.80
152;DHT22;68;48.792;9.164;2023-04-03T15:38:48;6.90;62.10
152;DHT22;68;48.792;9.164;2023-04-03T15:41:15;6.80;62.30
152;DHT22;68;48.792;9.164;2023-04-03T15:43:43;6.70;62.90
152;DHT22;68;48.792;9.164;2023-04-03T15:46:09;6.80;62.60
152;DHT22;68;48.792;9.164;2023-04-03T15:48:36;6.80;62.70
152;DHT22;68;48.792;9.164;2023-04-03T15:51:04;6.90;62.80
152;DHT22;68;48.792;9.164;2023-04-03T15:53:32;6.80;62.10
152;DHT22;68;48.792;9.164;2023-04-03T15:55:59;6.60;61.80
152;DHT22;68;48.792;9.164;2023-04-03T15:58:26;6.50;62.30
152;DHT22;68;48.792;9.164;2023-04-03T16:00:53;6.50;61.80
152;DHT22;68;48.792;9.164;2023-04-03T16:03:21;6.50;61.50
152;DHT22;68;48.792;9.164;2023-04-03T16:05:49;6.50;61.50
152;DHT22;68;48.792;9.164;2023-04-03T16:08:17;6.40;61.00
152;DHT22;68;48.792;9.164;2023-04-03T16:10:45;6.50;62.40
152;DHT22;68;48.792;9.164;2023-04-03T16:13:12;6.40;61.50
152;DHT22;68;48.792;9.164;2023-04-03T16:15:40;6.30;61.10
152;DHT22;68;48.792;9.164;2023-04-03T16:18:07;6.30;62.20
152;DHT22;68;48.792;9.164;2023-04-03T16:20:35;6.40;63.10
152;DHT22;68;48.792;9.164;2023-04-03T16:23:02;6.60;62.90
152;DHT22;68;48.792;9.164;2023-04-03T16:25:29;6.70;62.80
152;DHT22;68;48.792;9.164;2023-04-03T16:27:58;6.70;63.40
152;DHT22;68;48.792;9.164;2023-04-03T16:30:25;6.50;62.50
152;DHT22;68;48.792;9.164;2023-04-03T16:32:52;6.50;62.30
152;DHT22;68;48.792;9.164;2023-04-03T16:35:21;6.40;61.70
152;DHT22;68;48.792;9.164;2023-04-03T16:37:48;6.20;62.10
152;DHT22;68;48.792;9.164;2023-04-03T16:40:14;6.10;62.10
152;DHT22;68;48.792;9.164;2023-04-03T16:42:41;6.10;62.10
152;DHT22;68;48.792;9.164;2023-04-03T16:45:10;6.10;62.10
152;DHT22;68;48.792;9.164;2023-04-03T16:47:37;6.30;62.90
152;DHT22;68;48.792;9.164;2023-04-03T16:50:05;6.60;62.00
152;DHT22;68;48.792;9.164;2023-04-03T16:52:32;6.60;62.50
152;DHT22;68;48.792;9.164;2023-04-03T16:54:58;6.70;61.30
152;DHT22;68;48.792;9.164;2023-04-03T16:57:26;6.40;62.60
152;DHT22;68;48.792;9.164;2023-04-03T16:59:53;6.40;62.20
152;DHT22;68;48.792;9.164;2023-04-03T17:02:22;6.30;62.30
152;DHT22;68;48.792;9.164;2023-04-03T17:04:50;6.30;62.20
152;DHT22;68;48.792;9.164;2023-04-03T17:07:17;6.30;62.20
152;DHT22;68;48.792;9.164;2023-04-03T17:09:44;6.10;61.90
152;DHT22;68;48.792;9.164;2023-04-03T17:12:11;6.10;62.50
152;DHT22;68;48.792;9.164;2023-04-03T17:14:38;6.10;62.10
152;DHT22;68;48.792;9.164;2023-04-03T17:17:04;6.00;63.00
152;DHT22;68;48.792;9.164;2023-04-03T17:19:33;6.00;62.60
152;DHT22;68;48.792;9.164;2023-04-03T17:22:00;6.00;62.70
152;DHT22;68;48.792;9.164;2023-04-03T17:24:27;6.00;62.90
152;DHT22;68;48.792;9.164;2023-04-03T17:26:54;6.00;63.40
152;DHT22;68;48.792;9.164;2023-04-03T17:29:21;5.90;63.80
152;DHT22;68;48.792;9.164;2023-04-03T17:31:47;5.90;64.10
152;DHT22;68;48.792;9.164;2023-04-03T17:34:14;5.90;64.10
152;DHT22;68;48.792;9.164;2023-04-03T17:36:42;5.80;63.50
152;DHT22;68;48.792;9.164;2023-04-03T17:39:09;5.80;64.50